createdAt,value
2024-03-04T00:00:45.777Z,25.63
2024-03-04T00:03:12.142Z,24.05
2024-03-04T00:05:38.481Z,26.25
2024-03-04T00:08:04.857Z,21.92
2024-03-04T00:10:31.361Z,22.80
2024-03-04T00:12:58.540Z,23.48
2024-03-04T00:15:25.099Z,21.92
2024-03-04T00:17:54.504Z,22.65
2024-03-04T00:20:20.957Z,22.05
2024-03-04T00:22:48.579Z,19.20
2024-03-04T00:25:17.282Z,19.17
2024-03-04T00:27:44.500Z,19.33
2024-03-04T00:30:11.202Z,19.08
2024-03-04T00:32:37.696Z,16.30
2024-03-04T00:35:06.793Z,19.67
2024-03-04T00:37:33.744Z,20.17
2024-03-04T00:40:00.275Z,15.73
2024-03-04T00:42:28.420Z,16.67
2024-03-04T00:44:56.459Z,16.42
2024-03-04T00:47:22.920Z,16.05
2024-03-04T00:49:49.266Z,15.95
2024-03-04T00:52:18.203Z,16.08
2024-03-04T00:54:44.667Z,16.80
2024-03-04T00:57:11.961Z,13.98
2024-03-04T00:59:39.027Z,17.17
2024-03-04T01:02:06.685Z,15.63
2024-03-04T01:04:33.519Z,19.38
2024-03-04T01:07:00.007Z,21.27
2024-03-04T01:09:26.626Z,15.02
2024-03-04T01:11:54.292Z,20.45
2024-03-04T01:14:20.987Z,16.05
2024-03-04T01:16:50.350Z,21.10
2024-03-04T01:19:17.713Z,19.83
2024-03-04T01:21:44.287Z,21.13
2024-03-04T01:24:11.753Z,24.00
2024-03-04T01:26:38.115Z,20.50
2024-03-04T01:29:04.504Z,28.35
2024-03-04T01:31:31.023Z,26.40
2024-03-04T01:33:57.574Z,27.73
2024-03-04T01:36:23.981Z,25.52
2024-03-04T01:38:50.394Z,26.40
2024-03-04T01:41:16.727Z,27.35
2024-03-04T01:43:43.203Z,29.85
2024-03-04T01:46:09.751Z,28.50
2024-03-04T01:48:36.824Z,25.73
2024-03-04T01:51:03.281Z,30.38
2024-03-04T01:53:29.710Z,34.05
2024-03-04T01:56:01.510Z,24.60
2024-03-04T01:58:28.471Z,23.30
2024-03-04T02:00:55.941Z,18.40
2024-03-04T02:03:24.061Z,19.52
2024-03-04T02:05:50.744Z,18.70
2024-03-04T02:08:17.762Z,13.88
2024-03-04T02:10:45.400Z,15.90
2024-03-04T02:13:12.001Z,10.23
2024-03-04T02:15:41.171Z,10.85
2024-03-04T02:18:08.391Z,8.93
2024-03-04T02:20:46.011Z,8.65
2024-03-04T02:23:13.546Z,6.53
2024-03-04T02:25:51.199Z,13.10
2024-03-04T02:28:18.366Z,8.88
2024-03-04T02:30:44.845Z,9.80
2024-03-04T02:33:11.463Z,10.20
2024-03-04T02:35:38.573Z,9.23
2024-03-04T02:38:05.358Z,10.65
2024-03-04T02:40:31.766Z,10.65
2024-03-04T02:42:58.260Z,10.35
2024-03-04T02:45:24.794Z,10.55
2024-03-04T02:47:51.239Z,7.32
2024-03-04T02:50:17.677Z,13.95
2024-03-04T02:52:45.364Z,13.05
2024-03-04T02:55:11.816Z,10.05
2024-03-04T02:57:38.280Z,10.40
2024-03-04T03:00:07.311Z,9.90
2024-03-04T03:02:33.669Z,12.98
2024-03-04T03:05:00.232Z,9.52
2024-03-04T03:07:26.773Z,9.73
2024-03-04T03:09:53.167Z,11.93
2024-03-04T03:12:19.573Z,10.55
2024-03-04T03:14:45.930Z,12.30
2024-03-04T03:17:12.264Z,14.40
2024-03-04T03:19:39.637Z,11.23
2024-03-04T03:22:06.064Z,10.30
2024-03-04T03:24:32.437Z,14.50
2024-03-04T03:26:58.821Z,13.40
2024-03-04T03:29:25.254Z,15.77
2024-03-04T03:31:51.650Z,11.80
2024-03-04T03:34:18.182Z,10.60
2024-03-04T03:36:44.692Z,11.60
2024-03-04T03:39:11.143Z,12.68
2024-03-04T03:41:38.038Z,6.28
2024-03-04T03:44:04.466Z,9.68
2024-03-04T03:46:31.205Z,7.63
2024-03-04T03:48:57.832Z,10.70
2024-03-04T03:51:24.309Z,10.85
2024-03-04T03:53:50.743Z,11.77
2024-03-04T03:56:18.191Z,13.20
2024-03-04T03:58:44.539Z,11.93
2024-03-04T04:01:11.602Z,10.68
2024-03-04T04:03:38.292Z,15.13
2024-03-04T04:06:04.697Z,8.75
2024-03-04T04:08:31.249Z,7.95
2024-03-04T04:10:57.841Z,9.38
2024-03-04T04:13:24.267Z,6.32
2024-03-04T04:15:51.060Z,11.10
2024-03-04T04:18:17.751Z,6.85
2024-03-04T04:20:44.371Z,11.27
2024-03-04T04:23:10.710Z,12.00
2024-03-04T04:25:37.086Z,6.47
2024-03-04T04:28:04.167Z,11.02
2024-03-04T04:30:30.607Z,7.55
2024-03-04T04:32:56.994Z,5.72
2024-03-04T04:35:23.317Z,5.35
2024-03-04T04:37:49.666Z,6.13
2024-03-04T04:40:22.182Z,6.70
2024-03-04T04:42:48.541Z,10.68
2024-03-04T04:45:14.888Z,4.80
2024-03-04T04:47:41.293Z,4.45
2024-03-04T04:50:07.843Z,4.32
2024-03-04T04:52:34.278Z,8.63
2024-03-04T04:55:00.639Z,5.43
2024-03-04T04:57:27.119Z,9.18
2024-03-04T04:59:53.491Z,3.97
2024-03-04T05:02:20.225Z,5.32
2024-03-04T05:04:54.522Z,4.70
2024-03-04T05:07:27.076Z,4.38
2024-03-04T05:09:54.362Z,5.57
2024-03-04T05:12:21.139Z,3.88
2024-03-04T05:14:47.631Z,5.72
2024-03-04T05:17:14.172Z,4.22
2024-03-04T05:19:40.541Z,5.50
2024-03-04T05:22:08.397Z,5.28
2024-03-04T05:24:35.003Z,4.03
2024-03-04T05:27:01.628Z,3.10
2024-03-04T05:29:27.981Z,3.17
2024-03-04T05:31:55.157Z,4.75
2024-03-04T05:34:21.974Z,5.13
2024-03-04T05:36:49.248Z,3.05
2024-03-04T05:39:22.472Z,3.30
2024-03-04T05:41:51.985Z,5.22
2024-03-04T05:44:18.827Z,6.57
2024-03-04T05:46:45.448Z,8.75
2024-03-04T05:49:13.033Z,7.88
2024-03-04T05:51:41.106Z,3.90
2024-03-04T05:54:07.679Z,3.75
2024-03-04T05:56:34.036Z,4.65
2024-03-04T05:59:00.576Z,4.35
2024-03-04T06:01:26.981Z,2.97
2024-03-04T06:03:53.474Z,3.25
2024-03-04T06:06:19.931Z,7.57
2024-03-04T06:08:46.256Z,4.70
2024-03-04T06:11:13.469Z,4.78
2024-03-04T06:13:39.961Z,2.83
2024-03-04T06:16:06.410Z,4.07
2024-03-04T06:18:32.869Z,5.50
2024-03-04T06:21:00.705Z,6.88
2024-03-04T06:23:27.061Z,4.40
2024-03-04T06:25:53.756Z,8.15
2024-03-04T06:28:20.085Z,6.35
2024-03-04T06:30:48.213Z,2.25
2024-03-04T06:33:14.508Z,2.35
2024-03-04T06:35:40.860Z,3.95
2024-03-04T06:38:07.278Z,2.28
2024-03-04T06:40:34.008Z,4.97
2024-03-04T06:43:00.778Z,6.05
2024-03-04T06:45:28.783Z,2.05
2024-03-04T06:47:57.796Z,3.05
2024-03-04T06:50:24.137Z,2.80
2024-03-04T06:52:50.530Z,3.35
2024-03-04T06:55:16.883Z,3.72
2024-03-04T06:57:43.204Z,5.47
2024-03-04T07:00:13.164Z,3.75
2024-03-04T07:02:39.662Z,6.05
2024-03-04T07:05:06.074Z,4.97
2024-03-04T07:07:32.448Z,3.92
2024-03-04T07:09:58.895Z,8.90
2024-03-04T07:12:25.357Z,4.60
2024-03-04T07:14:51.768Z,3.63
2024-03-04T07:17:18.173Z,2.60
2024-03-04T07:19:44.609Z,5.95
2024-03-04T07:22:11.032Z,4.07
2024-03-04T07:24:37.359Z,4.72
2024-03-04T07:27:03.750Z,6.40
2024-03-04T07:29:37.992Z,3.53
2024-03-04T07:32:07.987Z,3.60
2024-03-04T07:34:34.441Z,2.78
2024-03-04T07:37:00.968Z,3.72
2024-03-04T07:39:27.819Z,2.42
2024-03-04T07:41:54.195Z,3.60
2024-03-04T07:44:20.536Z,6.05
2024-03-04T07:46:48.846Z,6.78
2024-03-04T07:49:15.372Z,5.53
2024-03-04T07:51:41.696Z,4.03
2024-03-04T07:54:08.150Z,6.30
2024-03-04T07:56:34.784Z,4.65
2024-03-04T07:59:01.662Z,2.17
2024-03-04T08:01:28.322Z,7.35
2024-03-04T08:03:54.821Z,3.97
2024-03-04T08:06:21.421Z,3.42
2024-03-04T08:08:49.592Z,5.38
2024-03-04T08:11:16.210Z,4.53
2024-03-04T08:13:42.660Z,9.60
2024-03-04T08:16:10.103Z,3.45
2024-03-04T08:18:36.623Z,2.35
2024-03-04T08:21:03.389Z,4.18
2024-03-04T08:23:29.771Z,3.10
2024-03-04T08:25:56.161Z,4.13
2024-03-04T08:28:28.829Z,5.63
2024-03-04T08:31:01.790Z,1.33
2024-03-04T08:33:29.421Z,2.88
2024-03-04T08:35:55.915Z,2.35
2024-03-04T08:38:22.333Z,4.93
2024-03-04T08:40:48.905Z,2.70
2024-03-04T08:43:15.404Z,3.28
2024-03-04T08:45:41.831Z,5.00
2024-03-04T08:48:09.360Z,6.18
2024-03-04T08:50:35.838Z,4.03
2024-03-04T08:53:02.242Z,2.55
2024-03-04T08:55:29.196Z,1.67
2024-03-04T08:57:55.870Z,0.47
2024-03-04T09:00:22.370Z,3.08
2024-03-04T09:02:48.803Z,4.30
2024-03-04T09:05:15.323Z,4.72
2024-03-04T09:07:41.792Z,0.98
2024-03-04T09:10:08.641Z,2.60
2024-03-04T09:12:35.194Z,1.25
2024-03-04T09:15:01.784Z,5.20
2024-03-04T09:17:28.189Z,3.47
2024-03-04T09:19:56.946Z,2.45
2024-03-04T09:22:24.243Z,1.73
2024-03-04T09:24:50.687Z,1.60
2024-03-04T09:27:17.049Z,1.80
2024-03-04T09:29:43.458Z,1.20
2024-03-04T09:32:09.906Z,2.58
2024-03-04T09:34:36.319Z,3.03
2024-03-04T09:37:03.198Z,1.45
2024-03-04T09:39:29.712Z,2.03
2024-03-04T09:41:56.787Z,2.65
2024-03-04T09:44:25.756Z,4.50
2024-03-04T09:46:52.538Z,3.10
2024-03-04T09:49:19.930Z,4.40
2024-03-04T09:51:46.517Z,3.05
2024-03-04T09:54:15.326Z,3.83
2024-03-04T09:56:41.839Z,6.70
2024-03-04T09:59:08.250Z,3.65
2024-03-04T10:01:37.202Z,2.45
2024-03-04T10:04:04.523Z,4.47
2024-03-04T10:06:31.015Z,5.47
2024-03-04T10:08:57.352Z,3.78
2024-03-04T10:11:23.696Z,3.75
2024-03-04T10:13:51.032Z,2.92
2024-03-04T10:16:17.504Z,3.65
2024-03-04T10:18:58.765Z,2.33
2024-03-04T10:21:33.364Z,6.47
2024-03-04T10:24:00.551Z,3.25
2024-03-04T10:26:28.145Z,1.60
2024-03-04T10:28:54.505Z,2.97
2024-03-04T10:31:21.012Z,1.45
2024-03-04T10:33:47.424Z,3.88
2024-03-04T10:36:14.981Z,3.13
2024-03-04T10:38:43.198Z,4.97
2024-03-04T10:41:16.569Z,4.35
2024-03-04T10:43:43.412Z,2.85
2024-03-04T10:46:10.040Z,2.45
2024-03-04T10:48:36.931Z,1.75
2024-03-04T10:51:03.365Z,2.15
2024-03-04T10:53:29.715Z,3.60
2024-03-04T10:56:02.027Z,3.38
2024-03-04T10:58:31.239Z,4.63
2024-03-04T11:00:58.183Z,4.43
2024-03-04T11:03:25.057Z,1.60
2024-03-04T11:05:53.725Z,3.38
2024-03-04T11:08:33.003Z,2.92
2024-03-04T11:11:02.247Z,6.07
2024-03-04T11:13:36.110Z,2.60
2024-03-04T11:16:02.533Z,3.47
2024-03-04T11:18:37.784Z,2.78
2024-03-04T11:21:05.021Z,3.03
2024-03-04T11:23:32.277Z,4.25
2024-03-04T11:25:59.230Z,3.65
2024-03-04T11:28:26.470Z,2.45
2024-03-04T11:30:52.785Z,2.67
2024-03-04T11:33:35.808Z,3.38
2024-03-04T11:36:02.304Z,2.22
2024-03-04T11:38:28.694Z,3.45
2024-03-04T11:40:58.742Z,1.67
2024-03-04T11:43:43.709Z,4.03
2024-03-04T11:46:18.674Z,2.13
2024-03-04T11:48:47.708Z,4.00
2024-03-04T11:51:14.376Z,2.53
2024-03-04T11:53:44.549Z,2.95
2024-03-04T11:56:10.928Z,5.90
2024-03-04T11:58:38.887Z,2.90
2024-03-04T12:01:13.059Z,4.07
2024-03-04T12:03:52.196Z,1.85
2024-03-04T12:06:18.573Z,2.00
2024-03-04T12:08:59.556Z,4.68
2024-03-04T12:11:33.022Z,6.88
2024-03-04T12:13:59.559Z,3.92
2024-03-04T12:16:26.137Z,3.10
2024-03-04T12:18:52.488Z,2.47
2024-03-04T12:21:21.904Z,4.32
2024-03-04T12:23:48.260Z,4.10
2024-03-04T12:26:15.110Z,3.45
2024-03-04T12:28:41.636Z,2.85
2024-03-04T12:31:14.546Z,4.05
2024-03-04T12:33:41.748Z,2.97
2024-03-04T12:36:08.599Z,4.00
2024-03-04T12:38:35.443Z,4.53
2024-03-04T12:41:01.813Z,3.55
2024-03-04T12:43:28.178Z,4.03
2024-03-04T12:45:55.066Z,3.63
2024-03-04T12:48:24.866Z,2.92
2024-03-04T12:50:51.179Z,6.03
2024-03-04T12:53:21.606Z,2.33
2024-03-04T12:55:49.030Z,5.32
2024-03-04T12:58:15.545Z,7.72
2024-03-04T13:00:43.166Z,3.20
2024-03-04T13:03:09.586Z,5.93
2024-03-04T13:05:35.950Z,2.67
2024-03-04T13:08:02.666Z,3.30
2024-03-04T13:10:29.173Z,3.25
2024-03-04T13:12:56.089Z,4.05
2024-03-04T13:15:22.661Z,2.53
2024-03-04T13:17:49.252Z,3.33
2024-03-04T13:20:16.403Z,3.67
2024-03-04T13:22:45.794Z,2.60
2024-03-04T13:25:12.440Z,3.67
2024-03-04T13:27:39.705Z,2.08
2024-03-04T13:30:06.936Z,2.97
2024-03-04T13:32:33.351Z,3.25
2024-03-04T13:34:59.868Z,3.50
2024-03-04T13:37:26.631Z,5.55
2024-03-04T13:39:53.144Z,4.20
2024-03-04T13:42:20.904Z,2.25
2024-03-04T13:44:47.402Z,2.85
2024-03-04T13:47:14.384Z,2.45
2024-03-04T13:49:40.835Z,3.78
2024-03-04T13:52:07.468Z,5.13
2024-03-04T13:54:35.132Z,3.33
2024-03-04T13:57:02.179Z,2.78
2024-03-04T13:59:29.874Z,2.47
2024-03-04T14:01:58.638Z,3.55
2024-03-04T14:04:26.006Z,2.90
2024-03-04T14:06:54.722Z,1.30
2024-03-04T14:09:21.108Z,3.15
2024-03-04T14:11:47.946Z,4.15
2024-03-04T14:14:14.737Z,2.50
2024-03-04T14:16:41.446Z,2.80
2024-03-04T14:19:07.832Z,2.50
2024-03-04T14:21:34.199Z,3.60
2024-03-04T14:24:00.643Z,3.03
2024-03-04T14:26:27.225Z,2.42
2024-03-04T14:28:53.632Z,3.28
2024-03-04T14:31:20.348Z,2.38
2024-03-04T14:33:47.383Z,2.88
2024-03-04T14:36:14.400Z,3.65
2024-03-04T14:38:40.876Z,2.67
2024-03-04T14:41:07.273Z,2.97
2024-03-04T14:43:33.809Z,3.38
2024-03-04T14:46:00.650Z,2.65
2024-03-04T14:48:27.293Z,1.75
2024-03-04T14:50:53.672Z,2.15
2024-03-04T14:53:19.991Z,10.23
2024-03-04T14:55:46.556Z,1.50
2024-03-04T14:58:13.201Z,4.35
2024-03-04T15:00:39.572Z,2.83
2024-03-04T15:03:06.052Z,2.45
2024-03-04T15:05:34.514Z,1.67
2024-03-04T15:08:01.283Z,4.18
2024-03-04T15:10:27.811Z,3.58
2024-03-04T15:12:54.467Z,4.00
2024-03-04T15:15:24.031Z,1.98
2024-03-04T15:17:50.529Z,3.00
2024-03-04T15:20:18.960Z,5.28
2024-03-04T15:22:46.826Z,3.08
2024-03-04T15:25:15.949Z,1.52
2024-03-04T15:27:43.326Z,5.00
2024-03-04T15:30:10.143Z,1.83
2024-03-04T15:32:39.728Z,2.60
2024-03-04T15:35:11.522Z,4.15
2024-03-04T15:37:38.450Z,4.20
2024-03-04T15:40:06.791Z,4.03
2024-03-04T15:42:36.249Z,1.83
2024-03-04T15:45:02.919Z,3.28
2024-03-04T15:47:30.077Z,4.53
2024-03-04T15:49:57.162Z,1.88
2024-03-04T15:52:23.571Z,2.75
2024-03-04T15:54:49.948Z,3.85
2024-03-04T15:57:16.429Z,1.90
2024-03-04T15:59:43.331Z,1.60
2024-03-04T16:02:09.786Z,1.73
2024-03-04T16:04:36.270Z,3.65
2024-03-04T16:07:02.817Z,2.92
2024-03-04T16:09:34.820Z,1.33
2024-03-04T16:12:01.608Z,1.88
2024-03-04T16:14:28.076Z,1.90
2024-03-04T16:16:54.972Z,6.80
2024-03-04T16:19:21.384Z,2.22
2024-03-04T16:21:48.404Z,2.00
2024-03-04T16:24:14.804Z,2.08
2024-03-04T16:26:41.138Z,1.80
2024-03-04T16:29:07.512Z,1.42
2024-03-04T16:31:35.168Z,0.82
2024-03-04T16:34:01.720Z,2.22
2024-03-04T16:36:28.132Z,4.90
2024-03-04T16:38:54.485Z,7.65
2024-03-04T16:41:21.897Z,4.65
2024-03-04T16:43:49.338Z,3.25
2024-03-04T16:46:15.950Z,1.20
2024-03-04T16:48:42.324Z,3.83
2024-03-04T16:51:14.900Z,2.67
2024-03-04T16:53:41.310Z,1.50
2024-03-04T16:56:11.043Z,2.17
2024-03-04T16:58:38.791Z,3.45
2024-03-04T17:01:06.091Z,2.33
2024-03-04T17:03:32.802Z,1.92
2024-03-04T17:05:59.178Z,4.13
2024-03-04T17:08:25.598Z,1.35
2024-03-04T17:10:53.045Z,1.77
2024-03-04T17:13:19.903Z,2.08
2024-03-04T17:15:46.206Z,2.03
2024-03-04T17:18:13.455Z,3.35
2024-03-04T17:20:39.895Z,2.75
2024-03-04T17:23:06.239Z,3.63
2024-03-04T17:25:32.708Z,2.60
2024-03-04T17:27:59.122Z,1.52
2024-03-04T17:30:25.583Z,2.28
2024-03-04T17:32:51.973Z,1.95
2024-03-04T17:35:18.447Z,2.97
2024-03-04T17:37:44.885Z,2.10
2024-03-04T17:40:11.443Z,2.85
2024-03-04T17:42:37.982Z,2.05
2024-03-04T17:45:05.432Z,1.60
2024-03-04T17:47:31.789Z,7.03
2024-03-04T17:49:58.257Z,1.80
2024-03-04T17:52:24.712Z,3.63
2024-03-04T17:54:51.061Z,3.50
2024-03-04T17:57:17.936Z,2.28
2024-03-04T17:59:44.648Z,1.77
2024-03-04T18:02:11.164Z,2.33
2024-03-04T18:04:37.814Z,1.90
2024-03-04T18:07:04.407Z,2.58
2024-03-04T18:09:30.816Z,6.65
2024-03-04T18:11:57.336Z,2.28
2024-03-04T18:14:23.845Z,3.05
2024-03-04T18:16:50.517Z,4.47
2024-03-04T18:19:17.334Z,2.03
2024-03-04T18:21:45.619Z,3.53
2024-03-04T18:24:12.360Z,3.00
2024-03-04T18:26:38.815Z,3.97
2024-03-04T18:29:05.492Z,4.32
2024-03-04T18:31:35.001Z,4.35
2024-03-04T18:34:02.183Z,4.78
2024-03-04T18:36:28.777Z,4.38
2024-03-04T18:38:56.346Z,5.47
2024-03-04T18:41:22.975Z,3.90
2024-03-04T18:43:49.606Z,4.13
2024-03-04T18:46:16.087Z,3.08
2024-03-04T18:48:43.136Z,3.67
2024-03-04T18:51:09.979Z,4.32
2024-03-04T18:53:36.605Z,3.63
2024-03-04T18:56:08.380Z,2.60
2024-03-04T18:58:36.308Z,3.58
2024-03-04T19:01:02.722Z,3.28
2024-03-04T19:03:29.209Z,3.72
2024-03-04T19:05:55.908Z,3.05
2024-03-04T19:08:22.440Z,4.10
2024-03-04T19:10:58.114Z,4.22
2024-03-04T19:13:29.755Z,4.00
2024-03-04T19:15:56.277Z,2.75
2024-03-04T19:18:25.859Z,4.10
2024-03-04T19:20:52.469Z,5.85
2024-03-04T19:23:19.177Z,4.00
2024-03-04T19:25:45.935Z,7.22
2024-03-04T19:28:13.766Z,3.67
2024-03-04T19:30:44.988Z,3.50
2024-03-04T19:33:12.328Z,6.18
2024-03-04T19:35:39.151Z,5.63
2024-03-04T19:38:05.495Z,4.03
2024-03-04T19:40:32.711Z,3.75
2024-03-04T19:42:59.191Z,7.30
2024-03-04T19:45:27.319Z,3.95
2024-03-04T19:47:54.191Z,9.50
2024-03-04T19:50:21.887Z,6.07
2024-03-04T19:52:48.327Z,7.13
2024-03-04T19:55:15.222Z,9.85
2024-03-04T19:57:41.605Z,8.98
2024-03-04T20:00:10.837Z,9.05
2024-03-04T20:02:38.040Z,9.98
2024-03-04T20:05:04.786Z,12.68
2024-03-04T20:07:31.461Z,10.45
2024-03-04T20:09:59.131Z,10.70
2024-03-04T20:12:26.737Z,9.95
2024-03-04T20:14:53.610Z,9.57
2024-03-04T20:17:19.941Z,7.45
2024-03-04T20:19:46.493Z,9.23
2024-03-04T20:22:12.997Z,8.32
2024-03-04T20:24:39.500Z,8.93
2024-03-04T20:27:05.840Z,6.07
2024-03-04T20:29:32.902Z,6.65
2024-03-04T20:31:59.320Z,7.85
2024-03-04T20:34:26.377Z,7.60
2024-03-04T20:36:52.844Z,8.02
2024-03-04T20:39:19.947Z,6.95
2024-03-04T20:41:46.707Z,8.35
2024-03-04T20:44:13.096Z,8.90
2024-03-04T20:46:39.595Z,7.50
2024-03-04T20:49:05.993Z,7.28
2024-03-04T20:51:32.530Z,9.63
2024-03-04T20:53:59.173Z,6.47
2024-03-04T20:56:27.195Z,7.72
2024-03-04T20:58:53.690Z,8.18
2024-03-04T21:01:20.149Z,8.10
2024-03-04T21:03:46.674Z,6.22
2024-03-04T21:06:14.001Z,6.45
2024-03-04T21:08:40.339Z,7.50
2024-03-04T21:11:06.873Z,6.78
2024-03-04T21:13:33.335Z,7.43
2024-03-04T21:15:59.818Z,10.20
2024-03-04T21:18:26.472Z,10.10
2024-03-04T21:20:52.946Z,6.90
2024-03-04T21:23:19.441Z,6.53
2024-03-04T21:25:47.598Z,5.53
2024-03-04T21:28:14.276Z,8.45
2024-03-04T21:30:40.773Z,5.43
2024-03-04T21:33:08.262Z,9.35
2024-03-04T21:35:36.747Z,9.55
2024-03-04T21:38:03.130Z,6.97
2024-03-04T21:40:29.620Z,6.53
2024-03-04T21:42:56.343Z,7.30
2024-03-04T21:45:22.688Z,8.90
2024-03-04T21:47:49.881Z,9.80
2024-03-04T21:50:17.801Z,4.90
2024-03-04T21:52:44.613Z,9.43
2024-03-04T21:55:14.079Z,7.68
2024-03-04T21:57:41.096Z,9.57
2024-03-04T22:00:16.058Z,4.95
2024-03-04T22:05:11.382Z,9.20
2024-03-04T22:07:39.134Z,9.23
2024-03-04T22:10:05.760Z,8.27
2024-03-04T22:12:32.111Z,7.40
2024-03-04T22:14:58.445Z,10.15
2024-03-04T22:17:24.891Z,15.57
2024-03-04T22:19:53.755Z,8.43
2024-03-04T22:22:21.059Z,10.82
2024-03-04T22:24:47.425Z,7.05
2024-03-04T22:27:14.776Z,6.97
2024-03-04T22:29:41.139Z,7.93
2024-03-04T22:32:07.581Z,6.93
2024-03-04T22:34:34.028Z,8.93
2024-03-04T22:37:00.548Z,7.97
2024-03-04T22:39:27.359Z,6.97
2024-03-04T22:41:53.779Z,11.30
2024-03-04T22:44:20.194Z,9.50
2024-03-04T22:46:46.576Z,7.97
2024-03-04T22:49:13.018Z,6.30
2024-03-04T22:51:39.927Z,8.40
2024-03-04T22:54:06.280Z,9.75
2024-03-04T22:56:34.060Z,13.45
2024-03-04T22:59:00.730Z,9.27
2024-03-04T23:01:31.054Z,9.18
2024-03-04T23:03:58.067Z,10.45
2024-03-04T23:06:24.674Z,8.82
2024-03-04T23:08:51.467Z,11.43
2024-03-04T23:11:18.361Z,10.15
2024-03-04T23:13:46.354Z,8.50
2024-03-04T23:16:13.875Z,11.48
2024-03-04T23:18:40.623Z,10.77
2024-03-04T23:21:07.476Z,10.27
2024-03-04T23:23:33.862Z,13.52
2024-03-04T23:26:00.528Z,15.65
2024-03-04T23:28:27.403Z,13.18
2024-03-04T23:30:53.940Z,10.32
2024-03-04T23:33:20.288Z,12.98
2024-03-04T23:35:46.595Z,9.43
2024-03-04T23:38:12.934Z,9.77
2024-03-04T23:40:39.301Z,8.70
2024-03-04T23:43:05.679Z,13.15
2024-03-04T23:45:32.045Z,12.00
2024-03-04T23:48:00.023Z,9.02
2024-03-04T23:50:26.822Z,10.05
2024-03-04T23:52:53.250Z,9.57
2024-03-04T23:55:19.649Z,12.98
2024-03-04T23:57:46.106Z,10.63
